createdAt,value
2023-03-06T00:00:58.158Z,85.70
2023-03-06T00:03:27.790Z,85.92
2023-03-06T00:05:57.391Z,86.59
2023-03-06T00:08:26.438Z,86.10
2023-03-06T00:10:54.146Z,86.58
2023-03-06T00:13:21.120Z,85.74
2023-03-06T00:15:49.232Z,85.96
2023-03-06T00:18:16.505Z,86.04
2023-03-06T00:20:44.469Z,86.42
2023-03-06T00:23:12.563Z,86.63
2023-03-06T00:25:45.043Z,85.81
2023-03-06T00:28:12.414Z,86.58
2023-03-06T00:30:39.689Z,86.43
2023-03-06T00:33:06.954Z,86.39
2023-03-06T00:35:33.922Z,86.10
2023-03-06T00:38:00.916Z,86.66
2023-03-06T00:40:27.907Z,86.96
2023-03-06T00:42:54.907Z,86.77
2023-03-06T00:45:22.020Z,86.83
2023-03-06T00:47:49.176Z,86.64
2023-03-06T00:50:16.528Z,85.78
2023-03-06T00:52:43.534Z,85.79
2023-03-06T00:55:11.613Z,86.51
2023-03-06T00:57:39.313Z,86.12
2023-03-06T01:00:08.328Z,86.29
2023-03-06T01:02:35.407Z,86.60
2023-03-06T01:05:02.897Z,86.84
2023-03-06T01:07:34.025Z,87.25
2023-03-06T01:10:01.034Z,86.78
2023-03-06T01:12:30.717Z,86.42
2023-03-06T01:14:57.653Z,87.34
2023-03-06T01:17:24.618Z,86.56
2023-03-06T01:19:51.624Z,87.27
2023-03-06T01:22:18.535Z,86.99
2023-03-06T01:24:45.475Z,86.19
2023-03-06T01:27:12.355Z,86.73
2023-03-06T01:29:39.392Z,87.20
2023-03-06T01:32:06.629Z,86.12
2023-03-06T01:34:33.559Z,85.85
2023-03-06T01:37:00.474Z,85.83
2023-03-06T01:39:28.719Z,85.46
2023-03-06T01:41:55.600Z,86.21
2023-03-06T01:44:22.699Z,85.76
2023-03-06T01:46:49.675Z,85.71
2023-03-06T01:49:35.299Z,85.67
2023-03-06T01:52:15.740Z,85.63
2023-03-06T01:55:02.413Z,85.53
2023-03-06T01:57:43.916Z,85.05
2023-03-06T02:00:13.217Z,85.61
2023-03-06T02:02:51.525Z,85.12
2023-03-06T02:05:18.811Z,85.33
2023-03-06T02:07:47.265Z,86.26
2023-03-06T02:10:16.377Z,85.30
2023-03-06T02:12:46.044Z,85.50
2023-03-06T02:15:17.276Z,86.05
2023-03-06T02:17:46.223Z,86.61
2023-03-06T02:20:28.100Z,86.40
2023-03-06T02:23:06.914Z,85.97
2023-03-06T02:25:42.815Z,86.56
2023-03-06T02:28:15.155Z,86.95
2023-03-06T02:30:44.701Z,87.91
2023-03-06T02:33:18.733Z,87.90
2023-03-06T02:35:59.803Z,87.20
2023-03-06T02:38:47.415Z,87.95
2023-03-06T02:41:14.697Z,87.20
2023-03-06T02:43:45.419Z,87.20
2023-03-06T02:46:13.812Z,87.34
2023-03-06T02:48:40.821Z,87.84
2023-03-06T02:51:07.761Z,87.93
2023-03-06T02:53:34.648Z,88.27
2023-03-06T02:56:01.690Z,87.73
2023-03-06T02:58:28.717Z,87.49
2023-03-06T03:00:55.689Z,88.44
2023-03-06T03:03:22.900Z,87.95
2023-03-06T03:05:49.824Z,88.29
2023-03-06T03:08:28.323Z,88.39
2023-03-06T03:10:59.921Z,88.42
2023-03-06T03:13:31.079Z,88.99
2023-03-06T03:16:09.108Z,88.98
2023-03-06T03:18:36.469Z,88.65
2023-03-06T03:21:11.932Z,89.03
2023-03-06T03:23:39.725Z,88.56
2023-03-06T03:26:10.642Z,89.32
2023-03-06T03:28:40.481Z,89.12
2023-03-06T03:31:11.072Z,88.85
2023-03-06T03:33:39.581Z,89.36
2023-03-06T03:36:08.585Z,88.86
2023-03-06T03:38:39.641Z,88.67
2023-03-06T03:41:06.914Z,88.90
2023-03-06T03:43:34.093Z,88.51
2023-03-06T03:46:01.400Z,88.20
2023-03-06T03:48:29.214Z,88.38
2023-03-06T03:51:06.136Z,88.35
2023-03-06T03:53:35.057Z,88.89
2023-03-06T03:56:02.481Z,88.75
2023-03-06T03:58:30.383Z,88.03
2023-03-06T04:00:57.511Z,87.97
2023-03-06T04:03:24.433Z,88.40
2023-03-06T04:05:53.984Z,88.82
2023-03-06T04:08:22.518Z,88.71
2023-03-06T04:10:53.341Z,88.18
2023-03-06T04:13:22.002Z,88.76
2023-03-06T04:15:53.066Z,88.35
2023-03-06T04:18:23.417Z,88.47
2023-03-06T04:20:52.634Z,88.99
2023-03-06T04:23:20.612Z,88.44
2023-03-06T04:25:47.818Z,89.00
2023-03-06T04:28:15.049Z,88.46
2023-03-06T04:30:43.066Z,87.24
2023-03-06T04:33:10.600Z,87.52
2023-03-06T04:35:37.737Z,87.22
2023-03-06T04:38:09.662Z,86.89
2023-03-06T04:40:36.811Z,87.16
2023-03-06T04:43:04.989Z,86.99
2023-03-06T04:45:33.402Z,87.59
2023-03-06T04:48:00.806Z,87.97
2023-03-06T04:50:32.432Z,88.02
2023-03-06T04:53:03.549Z,87.70
2023-03-06T04:55:31.239Z,88.14
2023-03-06T04:57:58.967Z,88.35
2023-03-06T05:00:30.550Z,87.82
2023-03-06T05:03:01.245Z,88.43
2023-03-06T05:05:29.240Z,87.63
2023-03-06T05:07:56.617Z,87.39
2023-03-06T05:10:23.957Z,88.22
2023-03-06T05:12:51.291Z,88.19
2023-03-06T05:15:18.669Z,88.90
2023-03-06T05:17:47.449Z,88.32
2023-03-06T05:20:17.339Z,88.19
2023-03-06T05:22:44.501Z,88.15
2023-03-06T05:25:11.812Z,89.01
2023-03-06T05:27:39.875Z,88.76
2023-03-06T05:30:09.973Z,88.87
2023-03-06T05:32:36.908Z,88.57
2023-03-06T05:35:05.585Z,88.67
2023-03-06T05:37:33.362Z,88.91
2023-03-06T05:40:00.397Z,89.05
2023-03-06T05:42:28.754Z,88.56
2023-03-06T05:44:55.752Z,88.86
2023-03-06T05:47:22.793Z,88.92
2023-03-06T05:49:49.859Z,89.71
2023-03-06T05:52:17.571Z,89.68
2023-03-06T05:54:44.587Z,90.83
2023-03-06T05:57:11.571Z,90.48
2023-03-06T05:59:38.505Z,89.98
2023-03-06T06:02:05.660Z,90.04
2023-03-06T06:04:32.924Z,90.72
2023-03-06T06:07:01.015Z,90.79
2023-03-06T06:09:29.285Z,90.13
2023-03-06T06:12:03.673Z,90.38
2023-03-06T06:14:34.161Z,90.21
2023-03-06T06:17:01.931Z,90.47
2023-03-06T06:19:30.957Z,89.81
2023-03-06T06:21:58.599Z,90.24
2023-03-06T06:24:26.817Z,90.08
2023-03-06T06:26:56.012Z,89.39
2023-03-06T06:29:23.636Z,90.21
2023-03-06T06:31:51.510Z,89.30
2023-03-06T06:34:19.374Z,89.43
2023-03-06T06:36:46.389Z,89.07
2023-03-06T06:39:19.263Z,89.15
2023-03-06T06:42:02.168Z,88.40
2023-03-06T06:44:32.739Z,88.75
2023-03-06T06:47:21.984Z,88.66
2023-03-06T06:49:53.848Z,88.37
2023-03-06T06:52:22.071Z,88.31
2023-03-06T06:54:49.001Z,88.10
2023-03-06T06:57:16.904Z,87.92
2023-03-06T06:59:44.002Z,87.78
2023-03-06T07:02:13.512Z,88.77
2023-03-06T07:04:49.336Z,88.71
2023-03-06T07:07:27.739Z,88.17
2023-03-06T07:09:55.967Z,88.33
2023-03-06T07:12:23.022Z,86.94
2023-03-06T07:14:50.129Z,87.61
2023-03-06T07:17:17.075Z,87.61
2023-03-06T07:19:44.036Z,86.77
2023-03-06T07:22:11.360Z,86.90
2023-03-06T07:24:38.280Z,86.68
2023-03-06T07:27:05.253Z,85.61
2023-03-06T07:29:34.038Z,86.18
2023-03-06T07:32:01.730Z,85.12
2023-03-06T07:34:28.760Z,83.51
2023-03-06T07:36:55.703Z,83.46
2023-03-06T07:39:22.556Z,83.48
2023-03-06T07:41:49.446Z,84.05
2023-03-06T07:44:16.390Z,83.53
2023-03-06T07:46:43.370Z,84.58
2023-03-06T07:49:10.365Z,84.18
2023-03-06T07:51:37.330Z,84.32
2023-03-06T07:54:04.200Z,83.52
2023-03-06T07:56:31.166Z,83.88
2023-03-06T07:58:58.109Z,84.59
2023-03-06T08:01:25.186Z,83.07
2023-03-06T08:03:52.990Z,83.38
2023-03-06T08:06:25.676Z,83.00
2023-03-06T08:08:55.274Z,83.31
2023-03-06T08:11:25.706Z,83.78
2023-03-06T08:13:53.607Z,84.38
2023-03-06T08:16:23.217Z,83.78
2023-03-06T08:18:50.637Z,83.82
2023-03-06T08:21:22.060Z,82.73
2023-03-06T08:23:49.785Z,81.68
2023-03-06T08:26:26.586Z,82.16
2023-03-06T08:28:55.613Z,82.00
2023-03-06T08:31:40.008Z,82.29
2023-03-06T08:34:19.821Z,81.75
2023-03-06T08:36:47.201Z,82.67
2023-03-06T08:39:14.361Z,82.27
2023-03-06T08:41:44.835Z,82.65
2023-03-06T08:44:12.608Z,83.04
2023-03-06T08:46:39.791Z,83.58
2023-03-06T08:49:07.093Z,84.37
2023-03-06T08:51:34.066Z,83.90
2023-03-06T08:54:00.937Z,84.83
2023-03-06T08:56:31.991Z,84.73
2023-03-06T08:59:01.858Z,84.17
2023-03-06T09:01:33.064Z,83.27
2023-03-06T09:04:03.573Z,82.91
2023-03-06T09:06:33.902Z,82.97
2023-03-06T09:09:01.025Z,83.00
2023-03-06T09:11:28.356Z,82.58
2023-03-06T09:13:56.669Z,83.05
2023-03-06T09:16:24.720Z,81.94
2023-03-06T09:18:53.003Z,81.70
2023-03-06T09:21:24.882Z,82.48
2023-03-06T09:23:51.926Z,82.66
2023-03-06T09:26:18.956Z,83.21
2023-03-06T09:28:46.423Z,83.58
2023-03-06T09:31:17.742Z,82.85
2023-03-06T09:33:45.316Z,82.61
2023-03-06T09:36:21.762Z,83.99
2023-03-06T09:38:50.136Z,83.06
2023-03-06T09:41:32.369Z,83.64
2023-03-06T09:44:15.540Z,84.04
2023-03-06T09:47:03.688Z,84.21
2023-03-06T09:49:58.195Z,85.64
2023-03-06T09:52:34.698Z,86.36
2023-03-06T09:55:12.482Z,85.88
2023-03-06T09:58:00.830Z,87.12
2023-03-06T10:00:45.537Z,86.22
2023-03-06T10:03:47.358Z,85.27
2023-03-06T10:06:39.646Z,85.33
2023-03-06T10:09:19.624Z,84.74
2023-03-06T10:12:12.848Z,85.86
2023-03-06T10:14:57.883Z,85.55
2023-03-06T10:17:37.687Z,85.35
2023-03-06T10:20:28.864Z,83.88
2023-03-06T10:23:12.965Z,84.50
2023-03-06T10:26:03.048Z,83.52
2023-03-06T10:29:05.841Z,84.32
2023-03-06T10:31:34.359Z,85.88
2023-03-06T10:34:23.485Z,85.86
2023-03-06T10:36:51.152Z,86.40
2023-03-06T10:39:21.796Z,85.31
2023-03-06T10:41:49.861Z,85.09
2023-03-06T10:44:23.455Z,85.25
2023-03-06T10:46:53.621Z,86.51
2023-03-06T10:49:35.611Z,86.98
2023-03-06T10:52:14.464Z,86.98
2023-03-06T10:54:44.420Z,86.48
2023-03-06T10:57:32.562Z,87.74
2023-03-06T11:00:05.057Z,87.71
2023-03-06T11:02:41.067Z,87.01
2023-03-06T11:05:21.521Z,88.62
2023-03-06T11:07:59.420Z,89.04
2023-03-06T11:10:28.838Z,89.80
2023-03-06T11:13:08.988Z,89.13
2023-03-06T11:15:36.311Z,89.39
2023-03-06T11:18:07.856Z,89.00
2023-03-06T11:20:52.020Z,90.00
2023-03-06T11:23:44.294Z,88.99
2023-03-06T11:26:17.105Z,90.51
2023-03-06T11:28:50.115Z,91.28
2023-03-06T11:31:25.382Z,90.25
2023-03-06T11:34:07.291Z,90.63
2023-03-06T11:37:00.474Z,91.21
2023-03-06T11:40:09.000Z,90.56
2023-03-06T11:42:38.156Z,90.85
2023-03-06T11:45:25.864Z,91.52
2023-03-06T11:48:03.197Z,90.65
2023-03-06T11:50:43.212Z,90.60
2023-03-06T11:53:17.388Z,91.24
2023-03-06T11:55:59.893Z,90.59
2023-03-06T11:58:44.930Z,90.71
2023-03-06T12:01:20.700Z,92.05
2023-03-06T12:04:22.611Z,92.68
2023-03-06T12:07:20.604Z,93.34
2023-03-06T12:10:08.350Z,94.30
2023-03-06T12:13:12.508Z,95.96
2023-03-06T12:15:57.553Z,95.70
2023-03-06T12:18:55.760Z,94.56
2023-03-06T12:21:40.608Z,93.94
2023-03-06T12:24:29.351Z,92.55
2023-03-06T12:27:42.582Z,92.33
2023-03-06T12:30:33.139Z,92.14
2023-03-06T12:33:40.853Z,89.80
2023-03-06T12:37:02.307Z,88.82
2023-03-06T12:39:54.426Z,86.33
2023-03-06T12:42:49.084Z,85.52
2023-03-06T12:45:33.908Z,86.88
2023-03-06T12:48:02.076Z,85.40
2023-03-06T12:50:37.080Z,85.82
2023-03-06T12:53:11.479Z,85.29
2023-03-06T12:55:48.774Z,83.74
2023-03-06T12:58:30.812Z,82.54
2023-03-06T13:01:41.915Z,83.09
2023-03-06T13:04:56.599Z,81.37
2023-03-06T13:08:03.517Z,79.34
2023-03-06T13:10:36.308Z,81.02
2023-03-06T13:13:05.136Z,80.90
2023-03-06T13:15:41.084Z,80.10
2023-03-06T13:18:23.375Z,77.95
2023-03-06T13:20:55.956Z,78.41
2023-03-06T13:23:32.039Z,76.86
2023-03-06T13:26:02.085Z,75.37
2023-03-06T13:28:50.651Z,75.03
2023-03-06T13:31:32.339Z,78.76
2023-03-06T13:34:04.376Z,80.78
2023-03-06T13:36:39.394Z,82.05
2023-03-06T13:39:11.993Z,83.92
2023-03-06T13:41:44.637Z,85.13
2023-03-06T13:44:43.553Z,85.12
2023-03-06T13:48:22.595Z,86.05
2023-03-06T13:50:48.783Z,87.82
2023-03-06T13:53:44.593Z,87.63
2023-03-06T13:56:33.337Z,87.59
2023-03-06T13:59:43.975Z,87.86
2023-03-06T14:02:52.036Z,88.09
2023-03-06T14:05:19.549Z,87.25
2023-03-06T14:08:01.132Z,87.53
2023-03-06T14:10:35.661Z,86.46
2023-03-06T14:13:47.845Z,85.66
2023-03-06T14:16:49.417Z,86.04
2023-03-06T14:19:18.915Z,85.54
2023-03-06T14:21:57.467Z,84.82
2023-03-06T14:24:52.421Z,85.98
2023-03-06T14:27:19.889Z,84.67
2023-03-06T14:29:48.673Z,85.04
2023-03-06T14:32:22.394Z,84.91
2023-03-06T14:34:49.464Z,84.84
2023-03-06T14:37:24.579Z,84.52
2023-03-06T14:39:52.173Z,83.52
2023-03-06T14:42:24.760Z,82.98
2023-03-06T14:45:18.673Z,81.85
2023-03-06T14:47:53.053Z,82.55
2023-03-06T14:50:32.820Z,84.38
2023-03-06T14:53:05.594Z,83.68
2023-03-06T14:55:36.199Z,84.30
2023-03-06T14:58:12.719Z,82.11
2023-03-06T15:00:45.273Z,81.68
2023-03-06T15:03:28.406Z,80.95
2023-03-06T15:05:55.890Z,78.53
2023-03-06T15:08:30.148Z,77.53
2023-03-06T15:11:03.771Z,78.03
2023-03-06T15:13:33.150Z,79.48
2023-03-06T15:16:24.239Z,80.81
2023-03-06T15:19:02.320Z,79.41
2023-03-06T15:21:38.806Z,81.04
2023-03-06T15:24:30.695Z,79.67
2023-03-06T15:27:21.379Z,78.84
2023-03-06T15:29:48.287Z,76.73
2023-03-06T15:32:29.478Z,75.88
2023-03-06T15:35:51.099Z,76.54
2023-03-06T15:38:37.320Z,76.57
2023-03-06T15:41:07.082Z,77.27
2023-03-06T15:43:39.765Z,78.17
2023-03-06T15:46:07.776Z,78.38
2023-03-06T15:48:35.513Z,79.31
2023-03-06T15:51:03.379Z,78.20
2023-03-06T15:53:30.376Z,79.10
2023-03-06T15:55:58.975Z,79.03
2023-03-06T15:58:29.345Z,77.44
2023-03-06T16:00:56.311Z,79.12
2023-03-06T16:03:23.269Z,77.73
2023-03-06T16:05:50.282Z,76.65
2023-03-06T16:08:17.258Z,78.12
2023-03-06T16:10:45.131Z,79.72
2023-03-06T16:13:27.254Z,78.82
2023-03-06T16:15:54.705Z,79.46
2023-03-06T16:18:21.643Z,78.95
2023-03-06T16:20:49.680Z,78.55
2023-03-06T16:23:16.654Z,79.01
2023-03-06T16:25:48.498Z,80.27
2023-03-06T16:28:16.851Z,80.32
2023-03-06T16:30:45.097Z,81.07
2023-03-06T16:33:13.598Z,81.00
2023-03-06T16:35:41.267Z,80.05
2023-03-06T16:38:09.845Z,80.53
2023-03-06T16:40:41.157Z,80.20
2023-03-06T16:43:10.472Z,81.05
2023-03-06T16:45:41.784Z,82.74
2023-03-06T16:48:15.997Z,82.02
2023-03-06T16:50:43.244Z,83.54
2023-03-06T16:53:10.200Z,82.38
2023-03-06T16:55:37.282Z,82.85
2023-03-06T16:58:04.600Z,83.11
2023-03-06T17:00:33.201Z,82.88
2023-03-06T17:03:02.953Z,83.64
2023-03-06T17:05:37.008Z,83.88
2023-03-06T17:08:04.690Z,84.84
2023-03-06T17:10:31.686Z,86.26
2023-03-06T17:12:58.708Z,87.08
2023-03-06T17:15:25.955Z,87.71
2023-03-06T17:17:53.320Z,87.86
2023-03-06T17:20:20.483Z,87.85
2023-03-06T17:22:47.475Z,88.16
2023-03-06T17:25:14.587Z,88.58
2023-03-06T17:27:41.854Z,88.21
2023-03-06T17:30:10.265Z,88.63
2023-03-06T17:32:40.791Z,89.18
2023-03-06T17:35:10.132Z,89.46
2023-03-06T17:37:37.039Z,89.57
2023-03-06T17:40:07.063Z,88.91
2023-03-06T17:42:35.253Z,89.14
2023-03-06T17:45:02.413Z,88.90
2023-03-06T17:47:30.824Z,89.23
2023-03-06T17:49:57.714Z,89.31
2023-03-06T17:52:24.977Z,89.79
2023-03-06T17:54:51.951Z,89.28
2023-03-06T17:57:18.870Z,89.28
2023-03-06T17:59:48.617Z,88.81
2023-03-06T18:02:16.309Z,88.85
2023-03-06T18:04:43.424Z,88.74
2023-03-06T18:07:10.507Z,88.29
2023-03-06T18:09:37.849Z,88.78
2023-03-06T18:12:04.922Z,88.44
2023-03-06T18:14:31.924Z,88.77
2023-03-06T18:16:58.873Z,88.78
2023-03-06T18:19:25.906Z,88.15
2023-03-06T18:21:52.816Z,87.85
2023-03-06T18:24:21.037Z,87.56
2023-03-06T18:26:47.923Z,87.71
2023-03-06T18:29:15.124Z,87.08
2023-03-06T18:31:43.090Z,87.21
2023-03-06T18:34:13.704Z,86.82
2023-03-06T18:36:43.517Z,86.94
2023-03-06T18:39:13.084Z,87.51
2023-03-06T18:41:40.136Z,87.21
2023-03-06T18:44:07.718Z,87.19
2023-03-06T18:46:37.953Z,87.21
2023-03-06T18:49:05.988Z,87.24
2023-03-06T18:51:33.635Z,87.49
2023-03-06T18:54:02.318Z,87.80
2023-03-06T18:56:29.911Z,87.55
2023-03-06T18:59:00.274Z,87.58
2023-03-06T19:01:30.637Z,87.45
2023-03-06T19:04:02.660Z,86.98
2023-03-06T19:06:30.190Z,87.25
2023-03-06T19:09:01.718Z,87.38
2023-03-06T19:11:29.246Z,87.33
2023-03-06T19:13:56.206Z,86.14
2023-03-06T19:16:26.589Z,86.50
2023-03-06T19:18:57.540Z,86.25
2023-03-06T19:21:27.553Z,85.40
2023-03-06T19:23:56.048Z,85.81
2023-03-06T19:26:23.300Z,85.94
2023-03-06T19:28:51.303Z,85.91
2023-03-06T19:31:29.605Z,84.36
2023-03-06T19:33:57.022Z,84.30
2023-03-06T19:36:28.703Z,85.20
2023-03-06T19:39:04.123Z,85.33
2023-03-06T19:41:31.183Z,85.31
2023-03-06T19:44:02.318Z,84.87
2023-03-06T19:46:29.595Z,85.13
2023-03-06T19:48:59.549Z,84.91
2023-03-06T19:51:27.217Z,84.86
2023-03-06T19:53:54.304Z,84.72
2023-03-06T19:56:29.084Z,84.28
2023-03-06T19:58:56.286Z,85.38
2023-03-06T20:01:26.728Z,84.76
2023-03-06T20:03:59.436Z,84.39
2023-03-06T20:06:33.724Z,84.91
2023-03-06T20:09:05.214Z,84.00
2023-03-06T20:11:32.509Z,84.28
2023-03-06T20:14:02.367Z,84.19
2023-03-06T20:16:30.021Z,83.87
2023-03-06T20:18:59.958Z,84.37
2023-03-06T20:21:29.463Z,84.72
2023-03-06T20:23:58.159Z,85.59
2023-03-06T20:26:28.314Z,85.77
2023-03-06T20:28:55.861Z,85.92
2023-03-06T20:31:26.149Z,85.93
2023-03-06T20:33:54.500Z,85.69
2023-03-06T20:36:35.899Z,84.60
2023-03-06T20:39:07.067Z,84.28
2023-03-06T20:41:34.013Z,83.65
2023-03-06T20:44:04.141Z,84.08
2023-03-06T20:46:32.142Z,84.47
2023-03-06T20:48:59.680Z,84.95
2023-03-06T20:51:31.461Z,84.07
2023-03-06T20:54:01.092Z,84.65
2023-03-06T20:56:33.826Z,84.04
2023-03-06T20:59:01.847Z,84.39
2023-03-06T21:01:30.895Z,84.90
2023-03-06T21:03:59.077Z,85.07
2023-03-06T21:06:28.776Z,85.88
2023-03-06T21:09:00.842Z,85.40
2023-03-06T21:11:28.666Z,84.41
2023-03-06T21:13:56.237Z,84.93
2023-03-06T21:16:25.791Z,85.89
2023-03-06T21:18:55.045Z,84.58
2023-03-06T21:21:24.158Z,83.96
2023-03-06T21:23:51.566Z,84.07
2023-03-06T21:26:22.000Z,83.78
2023-03-06T21:28:49.296Z,83.31
2023-03-06T21:31:19.336Z,82.79
2023-03-06T21:33:47.692Z,82.23
2023-03-06T21:36:15.554Z,82.97
2023-03-06T21:38:42.564Z,82.96
2023-03-06T21:41:21.674Z,82.86
2023-03-06T21:43:48.683Z,82.96
2023-03-06T21:46:16.046Z,83.51
2023-03-06T21:48:43.145Z,83.25
2023-03-06T21:51:16.896Z,81.24
2023-03-06T21:53:45.548Z,83.74
2023-03-06T21:56:14.456Z,82.31
2023-03-06T21:58:41.720Z,82.38
2023-03-06T22:01:20.011Z,82.21
2023-03-06T22:03:47.250Z,81.38
2023-03-06T22:06:18.274Z,82.77
2023-03-06T22:08:45.793Z,83.73
2023-03-06T22:11:17.076Z,84.11
2023-03-06T22:13:45.480Z,83.89
2023-03-06T22:16:13.671Z,84.49
2023-03-06T22:18:45.617Z,85.63
2023-03-06T22:21:16.433Z,84.43
2023-03-06T22:23:43.919Z,83.84
2023-03-06T22:26:13.632Z,85.00
2023-03-06T22:28:41.558Z,84.69
2023-03-06T22:31:14.870Z,85.19
2023-03-06T22:33:42.448Z,86.49
2023-03-06T22:36:15.863Z,86.71
2023-03-06T22:38:45.702Z,86.45
2023-03-06T22:41:15.503Z,87.22
2023-03-06T22:43:43.576Z,87.38
2023-03-06T22:46:14.668Z,87.44
2023-03-06T22:48:42.485Z,88.24
2023-03-06T22:51:16.719Z,88.32
2023-03-06T22:53:44.439Z,88.83
2023-03-06T22:56:15.397Z,89.21
2023-03-06T22:58:44.746Z,89.76
2023-03-06T23:01:17.849Z,89.37
2023-03-06T23:03:47.945Z,89.64
2023-03-06T23:06:22.375Z,89.01
2023-03-06T23:08:55.345Z,88.89
2023-03-06T23:11:23.902Z,88.55
2023-03-06T23:14:12.553Z,88.46
2023-03-06T23:16:58.126Z,88.92
2023-03-06T23:19:43.773Z,89.12
2023-03-06T23:22:30.564Z,89.71
2023-03-06T23:25:15.965Z,88.37
2023-03-06T23:27:42.959Z,89.49
2023-03-06T23:30:10.908Z,88.93
2023-03-06T23:32:38.114Z,88.80
2023-03-06T23:35:05.581Z,89.52
2023-03-06T23:37:32.790Z,89.17
2023-03-06T23:40:01.529Z,88.63
2023-03-06T23:42:29.922Z,89.78
2023-03-06T23:44:56.868Z,89.17
2023-03-06T23:47:23.989Z,89.42
2023-03-06T23:49:50.890Z,89.19
2023-03-06T23:52:17.871Z,90.30
2023-03-06T23:54:44.830Z,90.05
2023-03-06T23:57:11.810Z,90.82
2023-03-06T23:59:38.812Z,90.67
